Latest Weather Observations for Orange Airport

IDN60801

Issued at 6:23 pm EST Saturday 9 May 2026 (issued every 10 minutes, with the page automatically refreshed every 10 minutes)

About weather observations | Map of weather stations | Latest weather observations for NSW | Other Formats
Station Details ID: 063303 Name: ORANGE AIRPORT AWS Lat: -33.38 Lon: 149.13 Height: 944.65 m
Data from the previous 72 hours. | See also: Recent months at Orange Airport
Date/Time
EST
Temp
°C
App
Temp
°C
Dew
Point
°C
Rel
Hum
%
Delta-T
°C
Wind Press
QNH
hPa
Press
MSL
hPa
Rain since
9am
mm
Dir  Spd
km/h
Gust
km/h
Spd
kts
Gust
kts
09/06:00pm 9.5 5.7 5.9 78 1.7 SSW 15 17 8 9 1026.2 1026.1 0.0
09/05:30pm 10.4 7.1 6.2 75 2.1 SSW 13 17 7 9 1025.8 1025.7 0.0
09/05:00pm 11.8 8.5 6.5 70 2.6 SSW 13 17 7 9 1025.5 1025.4 0.0
09/04:30pm 13.1 9.4 6.2 63 3.5 SSW 15 20 8 11 1025.3 1025.2 0.0
09/04:00pm 13.9 10.2 6.3 60 3.8 SSW 15 19 8 10 1025.2 1025.1 0.0
09/03:30pm 14.6 11.0 6.9 60 4.0 SSW 15 20 8 11 1025.1 1025.0 0.0
09/03:00pm 15.4 11.9 7.2 58 4.2 SW 15 19 8 10 1024.8 1024.7 0.0
09/02:30pm 15.7 12.6 7.2 57 4.4 SSW 13 19 7 10 1024.7 1024.6 0.0
09/02:00pm 15.6 12.3 6.6 55 4.6 SSW 13 19 7 10 1024.6 1024.5 0.0
09/01:30pm 16.2 15.0 6.3 52 5.1 WNW 2 9 1 5 1024.8 1024.7 0.0
09/01:00pm 15.6 12.4 5.2 50 5.2 W 11 15 6 8 1025.0 1024.8 0.0
09/12:30pm 15.4 12.5 4.8 49 5.2 NNW 9 13 5 7 1025.4 1025.3 0.0
09/12:00pm 14.8 12.4 5.3 53 4.7 N 7 9 4 5 1025.9 1025.9 0.0
09/11:30am 14.8 12.6 5.3 53 4.7 ENE 6 9 3 5 1026.2 1026.1 0.0
09/11:00am 13.9 11.4 4.8 54 4.4 NE 7 15 4 8 1026.3 1026.2 0.0
09/10:30am 13.2 10.4 5.1 58 4.0 NNE 9 13 5 7 1026.4 1026.3 0.0
09/10:00am 12.3 9.8 6.4 67 2.9 ENE 9 13 5 7 1026.4 1026.3 0.0
09/09:30am 11.3 8.8 6.6 73 2.3 ENE 9 15 5 8 1026.3 1026.2 0.0
09/09:00am 10.3 7.9 7.2 81 1.5 E 9 11 5 6 1026.3 1026.2 0.2
09/08:30am 8.2 6.6 8.1 99 0.1 ESE 6 9 3 5 1026.2 1026.1 0.2
09/08:00am 5.4 3.2 5.3 99 0.0 SSW 6 6 3 3 1025.9 1025.9 0.2
09/07:30am 2.8 -0.1 2.7 99 0.0 SSW 7 9 4 5 1025.8 1025.7 0.2
09/07:26am 2.6 -0.3 2.5 99 0.0 SSW 7 9 4 5 1025.7 1025.6 0.2
09/07:13am 1.7 0.0 1.6 99 0.0 CALM 0 0 0 0 1025.6 1025.5 0.2
09/07:00am 1.8 0.1 1.7 99 0.0 CALM 0 0 0 0 1025.5 1025.4 0.2
09/06:30am 2.7 1.1 2.6 99 0.0 CALM 0 7 0 4 1025.2 1025.1 0.0
09/06:00am 1.7 -0.8 1.6 99 0.0 ESE 4 7 2 4 1024.8 1024.7 0.0
09/05:30am 1.0 -2.6 0.9 99 0.0 ESE 9 11 5 6 1024.5 1024.4 0.0
09/05:00am 0.3 -3.4 0.2 99 0.0 SSW 9 11 5 6 1024.3 1024.2 0.0
09/04:30am 1.2 -2.3 1.1 99 0.0 SW 9 9 5 5 1024.3 1024.2 0.0
09/04:00am 2.1 0.4 2.0 99 0.0 CALM 0 0 0 0 1024.2 1024.1 0.0
09/03:32am 2.4 0.4 2.3 99 0.0 SW 2 6 1 3 1024.2 1024.1 0.0
09/03:30am 2.6 0.6 2.5 99 0.0 SW 2 7 1 4 1024.2 1024.1 0.0
09/03:11am 4.4 1.8 4.3 99 0.0 SW 7 11 4 6 1024.2 1024.1 0.0
09/03:00am 4.7 1.4 4.6 99 0.0 SW 11 13 6 7 1024.3 1024.2 0.0
09/02:30am 5.1 2.3 5.0 99 0.0 SSW 9 11 5 6 1024.3 1024.2 0.0
09/02:00am 5.7 1.9 5.6 99 0.0 SSW 15 17 8 9 1024.3 1024.2 0.0
09/01:31am 5.2 2.0 5.1 99 0.0 SSW 11 13 6 7 1024.2 1024.1 0.0
09/01:30am 5.3 2.1 5.2 99 0.0 SSW 11 13 6 7 1024.2 1024.1 0.0
09/01:00am 6.1 3.5 6.0 99 0.0 SSW 9 13 5 7 1024.2 1024.1 0.0
09/12:41am 6.1 3.1 6.0 99 0.0 S 11 15 6 8 1024.2 1024.1 0.0
09/12:30am 6.3 2.9 6.0 98 0.1 S 13 19 7 10 1024.2 1024.1 0.0
09/12:00am 6.6 2.9 6.2 97 0.2 SSW 15 20 8 11 1024.0 1023.8 0.0
 
Date/Time
EST
Temp
°C
App
Temp
°C
Dew
Point
°C
Rel
Hum
%
Delta-T
°C
Wind Press
QNH
hPa
Press
MSL
hPa
Rain since
9am
mm
Dir  Spd
km/h
Gust
km/h
Spd
kts
Gust
kts
08/11:30pm 7.2 3.1 6.3 94 0.4 SSW 17 22 9 12 1024.3 1024.2 0.0
08/11:00pm 7.6 3.6 6.7 94 0.4 SW 17 22 9 12 1024.3 1024.2 0.0
08/10:30pm 7.6 4.4 7.0 96 0.3 SW 13 20 7 11 1024.6 1024.5 0.0
08/10:00pm 7.3 2.4 7.0 98 0.1 SW 22 32 12 17 1024.2 1024.1 0.0
08/09:30pm 7.3 2.4 6.9 97 0.2 SW 22 30 12 16 1024.1 1024.0 0.0
08/09:00pm 7.1 2.8 6.8 98 0.1 SW 19 26 10 14 1024.2 1024.1 0.0
08/08:30pm 7.4 1.0 6.8 96 0.3 SW 30 39 16 21 1023.6 1023.5 0.0
08/08:21pm 7.5 1.4 6.6 94 0.4 SW 28 35 15 19 1023.5 1023.4 0.0
08/08:00pm 7.8 2.5 6.9 94 0.4 SW 24 37 13 20 1023.9 1023.7 0.0
08/07:30pm 7.7 4.2 7.3 97 0.2 SSW 15 28 8 15 1023.6 1023.5 0.0
08/07:00pm 7.4 2.5 7.1 98 0.1 SW 22 28 12 15 1023.2 1023.1 0.0
08/06:30pm 7.3 3.0 6.9 97 0.2 SW 19 28 10 15 1023.0 1022.8 0.0
08/06:00pm 7.2 2.7 6.9 98 0.1 SW 20 30 11 16 1022.8 1022.6 0.0
08/05:30pm 7.1 2.2 6.8 98 0.1 SW 22 33 12 18 1022.2 1022.0 0.0
08/05:00pm 7.0 0.9 6.7 98 0.1 SW 28 43 15 23 1022.1 1021.9 0.0
08/04:30pm 7.0 1.3 6.6 97 0.2 SW 26 37 14 20 1022.3 1022.2 0.0
08/04:00pm 6.8 1.1 6.5 98 0.1 SW 26 33 14 18 1022.1 1021.9 0.0
08/03:30pm 6.7 1.4 6.6 99 0.0 SW 24 35 13 19 1022.0 1021.8 0.0
08/03:00pm 6.3 1.2 6.2 99 0.0 SW 22 32 12 17 1022.0 1021.8 0.0
08/02:30pm 6.6 2.0 6.3 98 0.1 SW 20 32 11 17 1021.9 1021.7 0.0
08/02:27pm 6.7 2.3 6.6 99 0.0 SW 19 30 10 16 1022.0 1021.8 0.0
08/02:00pm 6.4 -0.1 6.3 99 0.0 WSW 30 37 16 20 1021.6 1021.4 0.0
08/01:55pm 6.5 0.0 6.4 99 0.0 WSW 30 41 16 22 1021.7 1021.5 0.0
08/01:31pm 6.6 0.4 6.0 96 0.3 WSW 28 46 15 25 1021.8 1021.6 0.0
08/01:30pm 6.4 -0.3 5.8 96 0.3 WSW 30 46 16 25 1021.8 1021.6 0.0
08/01:22pm 6.5 0.2 5.9 96 0.3 WSW 28 46 15 25 1021.8 1021.6 0.0
08/01:00pm 6.4 0.9 6.0 97 0.2 WSW 24 32 13 17 1022.0 1021.8 0.0
08/12:30pm 6.3 1.5 5.6 95 0.3 WSW 20 26 11 14 1022.3 1022.2 0.0
08/12:00pm 5.6 0.0 5.3 98 0.1 WSW 24 32 13 17 1022.7 1022.5 0.0
08/11:30am 6.4 1.8 6.3 99 0.0 WSW 20 28 11 15 1022.9 1022.7 0.0
08/11:12am 5.8 1.0 5.7 99 0.0 WSW 20 28 11 15 1022.9 1022.7 0.0
08/11:00am 5.3 0.0 5.2 99 0.0 SW 22 33 12 18 1023.2 1023.1 0.0
08/10:39am 5.2 0.5 5.1 99 0.0 SW 19 28 10 15 1023.4 1023.3 0.0
08/10:30am 4.9 -0.4 4.8 99 0.0 SW 22 32 12 17 1023.4 1023.3 0.0
08/10:00am 5.2 0.4 4.8 97 0.2 SW 19 26 10 14 1023.3 1023.2 0.0
08/09:30am 4.8 -0.9 4.7 99 0.0 SW 24 33 13 18 1022.9 1022.7 0.0
08/09:16am 4.3 -0.8 4.2 99 0.0 SW 20 32 11 17 1023.0 1022.8 0.0
08/09:00am 4.2 -2.0 4.1 99 0.0 SW 26 35 14 19 1022.8 1022.6 0.0
08/08:30am 4.1 -2.6 3.4 95 0.3 SW 28 35 15 19 1022.5 1022.4 0.0
08/08:00am 3.7 -2.0 3.1 96 0.3 SW 22 30 12 16 1022.2 1022.0 0.0
08/07:30am 3.6 -2.2 2.4 92 0.5 SW 22 32 12 17 1022.1 1021.9 0.0
08/07:00am 3.4 -2.8 1.9 90 0.6 SW 24 35 13 19 1021.8 1021.6 0.0
08/06:54am 3.3 -2.6 1.8 90 0.6 SW 22 33 12 18 1021.7 1021.5 0.0
08/06:30am 2.9 -2.7 1.4 90 0.6 SW 20 26 11 14 1021.6 1021.4 0.0
08/06:00am 3.1 -2.9 1.3 88 0.7 SW 22 30 12 16 1021.4 1021.3 0.0
08/05:30am 3.3 -2.2 1.7 89 0.7 SW 20 32 11 17 1021.4 1021.3 0.0
08/05:00am 3.3 -3.0 1.8 90 0.6 SW 24 35 13 19 1021.4 1021.3 0.0
08/04:30am 3.2 -3.4 1.9 91 0.5 SW 26 35 14 19 1021.3 1021.2 0.0
08/04:23am 3.1 -3.1 1.9 92 0.5 SW 24 33 13 18 1021.2 1021.0 0.0
08/04:00am 2.9 -3.4 1.7 92 0.5 SW 24 35 13 19 1021.1 1020.9 0.0
08/03:30am 2.7 -3.6 1.7 93 0.4 SW 24 33 13 18 1021.4 1021.3 0.0
08/03:00am 2.7 -4.3 1.7 93 0.4 SW 28 37 15 20 1021.3 1021.2 0.0
08/02:30am 2.7 -4.4 1.5 92 0.5 SW 28 37 15 20 1021.3 1021.2 0.0
08/02:00am 2.7 -3.6 1.4 91 0.5 SSW 24 35 13 19 1021.8 1021.6 0.0
08/01:30am 2.4 -4.4 0.8 89 0.6 SW 26 35 14 19 1021.8 1021.6 0.0
08/01:00am 2.4 -4.8 0.6 88 0.7 SW 28 37 15 20 1022.0 1021.8 0.0
08/12:43am 2.2 -4.7 0.4 88 0.7 SW 26 37 14 20 1022.0 1021.8 0.0
08/12:30am 2.1 -4.8 0.3 88 0.7 SW 26 35 14 19 1022.0 1021.8 0.0
08/12:00am 1.9 -5.0 0.0 87 0.7 SW 26 35 14 19 1022.0 1021.8 0.0
 
Date/Time
EST
Temp
°C
App
Temp
°C
Dew
Point
°C
Rel
Hum
%
Delta-T
°C
Wind Press
QNH
hPa
Press
MSL
hPa
Rain since
9am
mm
Dir  Spd
km/h
Gust
km/h
Spd
kts
Gust
kts
07/11:30pm 1.5 -4.7 -0.3 88 0.7 SW 22 30 12 16 1022.1 1021.9 0.0
07/11:00pm 1.6 -4.0 -0.3 87 0.7 SW 19 24 10 13 1022.1 1021.9 0.0
07/10:30pm 1.7 -4.1 -0.4 86 0.8 SW 20 35 11 19 1022.3 1022.2 0.0
07/10:00pm 1.9 -4.7 -0.5 84 0.9 SW 24 35 13 19 1022.1 1021.9 0.0
07/09:30pm 2.2 -4.8 -0.5 82 1.0 SW 26 33 14 18 1022.0 1021.8 0.0
07/09:00pm 2.5 -4.9 -0.4 81 1.1 SW 28 43 15 23 1021.9 1021.7 0.0
07/08:30pm 2.7 -4.7 -0.4 80 1.2 SW 28 37 15 20 1021.7 1021.5 0.0
07/08:00pm 2.3 -4.4 -0.8 80 1.2 SW 24 35 13 19 1021.7 1021.5 0.0
07/07:30pm 2.8 -2.5 -0.6 78 1.3 SW 17 24 9 13 1021.8 1021.6 0.0
07/07:00pm 2.9 -4.5 -0.5 78 1.3 SW 28 41 15 22 1021.2 1021.0 0.0
07/06:30pm 3.0 -5.4 -1.2 74 1.6 SW 33 50 18 27 1021.0 1020.8 0.0
07/06:22pm 3.3 -4.2 -1.1 73 1.7 SW 28 50 15 27 1020.9 1020.7 0.0
07/06:00pm 3.6 -3.1 -0.8 73 1.7 SW 24 35 13 19 1020.9 1020.7 0.0
07/05:30pm 3.4 -3.7 -1.5 70 1.9 SW 26 37 14 20 1020.2 1020.0 0.0
07/05:00pm 4.0 -3.5 -1.4 68 2.1 SW 28 39 15 21 1019.6 1019.4 0.0
07/04:39pm 4.4 -5.2 -1.6 65 2.3 SW 39 57 21 31 1019.3 1019.0 0.0
07/04:30pm 4.3 -4.5 -1.5 66 2.2 WSW 35 46 19 25 1019.3 1019.0 0.0
07/04:00pm 4.8 -3.6 -1.4 64 2.4 WSW 33 46 18 25 1019.4 1019.1 0.0
07/03:30pm 5.2 -3.6 -1.0 64 2.5 WSW 35 48 19 26 1019.1 1018.9 0.0
07/03:00pm 5.4 -3.1 -1.5 61 2.7 WSW 33 46 18 25 1019.1 1018.9 0.0
07/02:30pm 6.8 -2.0 -0.9 58 3.1 WSW 35 48 19 26 1019.0 1018.8 0.0
07/02:00pm 7.3 -2.2 -0.9 56 3.3 WSW 39 52 21 28 1018.7 1018.5 0.0
07/01:52pm 7.0 -1.2 -1.2 56 3.3 WSW 32 50 17 27 1018.7 1018.5 0.0
07/01:30pm 6.6 -2.1 -0.6 60 2.9 WSW 35 50 19 27 1018.8 1018.6 0.0
07/01:01pm 6.5 -2.6 -0.5 61 2.8 WSW 37 56 20 30 1018.6 1018.4 0.0
07/01:00pm 6.4 -3.1 -0.6 61 2.8 WSW 39 56 21 30 1018.6 1018.4 0.0
07/12:45pm 5.7 -3.5 -1.4 60 2.8 WSW 37 56 20 30 1018.5 1018.2 0.0
07/12:30pm 5.1 -3.8 -1.8 61 2.7 WSW 35 50 19 27 1018.6 1018.4 0.0
07/12:00pm 4.6 -5.0 -1.4 65 2.3 SW 39 54 21 29 1018.5 1018.2 0.0
07/11:30am 5.3 -3.7 0.3 70 2.0 WSW 37 48 20 26 1018.8 1018.6 0.0
07/11:01am 4.7 -3.5 0.3 73 1.8 WSW 33 52 18 28 1018.7 1018.5 0.0
07/11:00am 4.8 -3.8 0.4 73 1.8 WSW 35 52 19 28 1018.7 1018.5 0.0
07/10:32am 4.7 -3.3 1.4 79 1.4 SW 33 54 18 29 1018.4 1018.1 0.0
07/10:30am 4.8 -3.0 1.8 81 1.3 SW 32 44 17 24 1018.5 1018.2 0.0
07/10:01am 4.4 -4.6 0.4 75 1.6 SW 37 56 20 30 1018.2 1017.9 0.0
07/10:00am 4.6 -4.3 0.9 77 1.5 SW 37 50 20 27 1018.2 1017.9 0.0
07/09:57am 4.5 -4.0 1.2 79 1.4 WSW 35 48 19 26 1018.3 1018.0 0.0
07/09:30am 3.6 -4.0 2.7 94 0.4 SW 32 50 17 27 1018.3 1018.0 0.0
07/09:29am 3.7 -3.9 3.0 95 0.3 SW 32 50 17 27 1018.2 1017.9 0.0
07/09:00am 3.5 -4.1 2.9 96 0.3 SW 32 44 17 24 1018.3 1018.0 1.4
07/08:30am 5.8 -2.2 5.7 99 0.0 WSW 37 52 20 28 1017.5 1017.2 1.2
07/08:26am 5.9 -2.1 5.8 99 0.0 WSW 37 52 20 28 1017.4 1017.1 1.2
07/08:13am 6.3 0.1 6.2 99 0.0 WSW 28 48 15 26 1017.0 1016.7 1.0
07/08:00am 6.2 0.0 6.1 99 0.0 WSW 28 41 15 22 1016.8 1016.6 1.0
07/07:30am 6.2 -0.4 6.1 99 0.0 WSW 30 44 16 24 1016.7 1016.5 0.6
07/07:19am 6.3 0.1 6.2 99 0.0 WSW 28 46 15 25 1016.7 1016.5 0.6
07/07:00am 6.1 0.2 6.0 99 0.0 WSW 26 37 14 20 1016.6 1016.3 0.4
07/06:35am 6.0 -0.3 5.7 98 0.1 WSW 28 39 15 21 1016.4 1016.1 0.2
07/06:30am 6.1 -0.6 5.5 96 0.3 WSW 30 41 16 22 1016.4 1016.1 0.2
07/06:00am 6.4 0.4 5.4 93 0.5 WSW 26 37 14 20 1016.4 1016.1 0.2
07/05:39am 5.9 -0.5 5.0 94 0.4 WSW 28 35 15 19 1016.6 1016.3 0.2
07/05:30am 5.8 -0.2 5.1 95 0.3 WSW 26 37 14 20 1016.6 1016.3 0.2
07/05:00am 5.6 -0.2 4.2 91 0.6 WSW 24 33 13 18 1016.6 1016.3 0.2
07/04:30am 5.7 0.8 4.3 91 0.6 WSW 19 26 10 14 1016.5 1016.2 0.2
07/04:00am 6.1 0.0 4.6 90 0.7 WSW 26 35 14 19 1016.7 1016.5 0.2
07/03:30am 5.7 0.9 4.7 93 0.5 WSW 19 26 10 14 1017.1 1016.8 0.2
07/03:00am 5.7 2.1 5.1 96 0.3 WSW 13 20 7 11 1017.5 1017.2 0.2
07/02:58am 5.7 1.8 5.3 97 0.2 SW 15 20 8 11 1017.6 1017.3 0.2
07/02:30am 5.7 1.9 5.6 99 0.0 SW 15 20 8 11 1017.8 1017.6 0.0
07/02:24am 5.7 1.9 5.6 99 0.0 SW 15 20 8 11 1017.8 1017.6 0.0
07/02:01am 5.7 1.8 5.3 97 0.2 SW 15 20 8 11 1017.8 1017.6 0.0
07/02:00am 5.8 1.9 5.4 97 0.2 SW 15 20 8 11 1017.9 1017.7 0.0
07/01:30am 6.4 1.7 6.0 97 0.2 SSW 20 26 11 14 1018.3 1018.0 0.0
07/01:00am 6.7 0.9 6.1 96 0.3 SW 26 33 14 18 1018.5 1018.2 0.0
07/12:37am 6.8 2.4 6.5 98 0.1 SW 19 24 10 13 1018.6 1018.4 0.0
07/12:30am 6.7 2.3 6.4 98 0.1 SW 19 24 10 13 1018.6 1018.4 0.0
07/12:00am 6.5 2.4 6.1 97 0.2 SW 17 20 9 11 1018.7 1018.5 0.0
 
Date/Time
EST
Temp
°C
App
Temp
°C
Dew
Point
°C
Rel
Hum
%
Delta-T
°C
Wind Press
QNH
hPa
Press
MSL
hPa
Rain since
9am
mm
Dir  Spd
km/h
Gust
km/h
Spd
kts
Gust
kts
06/11:30pm 6.6 2.6 6.5 99 0.0 SW 17 26 9 14 1018.7 1018.5 0.0
06/11:00pm 6.2 2.4 5.9 98 0.1 SSW 15 19 8 10 1019.0 1018.8 0.0
06/10:30pm 6.7 2.2 6.0 95 0.3 SW 19 24 10 13 1019.3 1019.0 0.0
06/10:00pm 7.1 2.7 6.4 95 0.3 SW 19 24 10 13 1019.4 1019.1 0.0
06/09:30pm 6.8 2.2 5.6 92 0.6 SW 19 22 10 12 1019.6 1019.4 0.0
06/09:00pm 7.3 2.7 5.8 90 0.7 SW 19 24 10 13 1019.7 1019.5 0.0
06/08:30pm 7.8 2.8 6.6 92 0.6 WSW 22 26 12 14 1019.9 1019.7 0.0
06/08:00pm 7.8 3.8 6.7 93 0.5 SW 17 20 9 11 1019.6 1019.4 0.0
06/07:30pm 8.4 3.6 7.5 94 0.4 SW 22 26 12 14 1019.6 1019.4 0.0
06/07:00pm 8.5 4.7 7.4 93 0.5 SW 17 22 9 12 1019.7 1019.5 0.0
06/06:30pm 8.8 5.3 7.1 89 0.8 SW 15 20 8 11 1019.6 1019.4 0.0

Other formats

Comma delimited format used in spreadsheet applications
http://www.bom.gov.au/fwo/IDN60801/IDN60801.95726.axf

JavaScript Object Notation format (JSON) in row-major order
http://www.bom.gov.au/fwo/IDN60801/IDN60801.95726.json

Data quality

Most of these data are generated automatically and are frequently updated. Quality checks on data are not normally performed. It is possible for incorrect values to appear. Refer to information at About Latest Weather Observations and please check the disclaimer before using these data.